createdAt,value
2023-03-01T00:03:04.558Z,96213.78
2023-03-01T00:08:16.224Z,96210.53
2023-03-01T00:13:18.624Z,96203.22
2023-03-01T00:18:21.190Z,96203.78
2023-03-01T00:23:23.946Z,96192.84
2023-03-01T00:28:26.339Z,96206.28
2023-03-01T00:33:29.449Z,96204.03
2023-03-01T00:38:41.773Z,96194.09
2023-03-01T00:43:44.748Z,96191.03
2023-03-01T00:48:47.144Z,96191.41
2023-03-01T00:53:49.448Z,96181.63
2023-03-01T00:58:51.791Z,96182.63
2023-03-01T01:03:54.530Z,96170.06
2023-03-01T01:08:56.929Z,96163.97
2023-03-01T01:13:59.683Z,96154.34
2023-03-01T01:19:02.041Z,96151.53
2023-03-01T01:24:05.155Z,96152.34
2023-03-01T01:29:07.476Z,96135.66
2023-03-01T01:34:10.262Z,96141.94
2023-03-01T01:39:14.217Z,96129.94
2023-03-01T01:44:17.441Z,96137.03
2023-03-01T01:49:20.183Z,96122.44
2023-03-01T01:54:22.831Z,96123.06
2023-03-01T01:59:26.033Z,96115.69
2023-03-01T02:04:29.196Z,96114.06
2023-03-01T02:09:31.527Z,96101.88
2023-03-01T02:14:33.845Z,96103.94
2023-03-01T02:19:46.184Z,96105.53
2023-03-01T02:24:48.690Z,96098.44
2023-03-01T02:29:51.267Z,96097.06
2023-03-01T02:34:54.409Z,96096.22
2023-03-01T02:39:58.588Z,96090.69
2023-03-01T02:45:01.702Z,96093.34
2023-03-01T02:50:04.124Z,96088.06
2023-03-01T02:55:06.873Z,96087.19
2023-03-01T03:00:10.044Z,96077.84
2023-03-01T03:05:12.560Z,96074.38
2023-03-01T03:10:15.486Z,96078.63
2023-03-01T03:15:18.798Z,96093.41
2023-03-01T03:20:21.940Z,96093.41
2023-03-01T03:25:24.365Z,96093.81
2023-03-01T03:30:26.818Z,96079.38
2023-03-01T03:35:31.328Z,96079.38
2023-03-01T03:40:33.817Z,96079.56
2023-03-01T03:45:36.314Z,96067.75
2023-03-01T03:50:43.098Z,96079.09
2023-03-01T03:55:45.899Z,96073.53
2023-03-01T04:00:48.209Z,96065.25
2023-03-01T04:05:51.534Z,96059.13
2023-03-01T04:10:53.906Z,96055.22
2023-03-01T04:15:56.228Z,96051.56
2023-03-01T04:20:58.642Z,96057.88
2023-03-01T04:26:01.257Z,96058.63
2023-03-01T04:31:07.386Z,96053.75
2023-03-01T04:36:19.586Z,96063.25
2023-03-01T04:41:22.335Z,96055.44
2023-03-01T04:46:24.694Z,96046.91
2023-03-01T04:51:27.497Z,96049.28
2023-03-01T04:56:30.320Z,96053.78
2023-03-01T05:01:33.691Z,96046.31
2023-03-01T05:06:36.996Z,96046.63
2023-03-01T05:11:39.436Z,96041.16
2023-03-01T05:16:41.902Z,96043.31
2023-03-01T05:21:59.702Z,96034.78
2023-03-01T05:27:02.478Z,96034.16
2023-03-01T05:32:05.249Z,96033.47
2023-03-01T05:37:08.588Z,96042.56
2023-03-01T05:42:11.841Z,96035.59
2023-03-01T05:47:15.050Z,96030.72
2023-03-01T05:52:17.580Z,96037.41
2023-03-01T05:57:21.359Z,96027.94
2023-03-01T06:02:24.117Z,96030.78
2023-03-01T06:07:26.899Z,96032.03
2023-03-01T06:12:29.263Z,96042.44
2023-03-01T06:17:31.759Z,96043.69
2023-03-01T06:22:34.247Z,96042.19
2023-03-01T06:27:36.870Z,96041.25
2023-03-01T06:32:43.041Z,96051.34
2023-03-01T06:37:45.528Z,96048.81
2023-03-01T06:42:47.964Z,96049.72
2023-03-01T06:47:50.297Z,96050.22
2023-03-01T06:52:53.670Z,96053.97
2023-03-01T06:57:56.383Z,96039.91
2023-03-01T07:02:58.815Z,96036.88
2023-03-01T07:08:01.611Z,96043.28
2023-03-01T07:13:04.488Z,96047.66
2023-03-01T07:18:06.853Z,96039.78
2023-03-01T07:23:09.799Z,96034.84
2023-03-01T07:28:12.113Z,96029.50
2023-03-01T07:33:14.812Z,96032.38
2023-03-01T07:38:18.399Z,96024.50
2023-03-01T07:43:21.653Z,96011.22
2023-03-01T07:48:24.134Z,96008.66
2023-03-01T07:53:26.959Z,96010.00
2023-03-01T07:58:29.339Z,96005.09
2023-03-01T08:03:32.326Z,96007.16
2023-03-01T08:08:35.452Z,96001.13
2023-03-01T08:13:37.983Z,96003.44
2023-03-01T08:18:40.847Z,95997.00
2023-03-01T08:23:43.223Z,96000.50
2023-03-01T08:28:45.879Z,95997.09
2023-03-01T08:33:51.533Z,95998.72
2023-03-01T08:38:54.680Z,95988.13
2023-03-01T08:43:59.936Z,95982.63
2023-03-01T08:49:02.446Z,95978.41
2023-03-01T08:54:05.589Z,95981.69
2023-03-01T08:59:08.258Z,95973.19
2023-03-01T09:09:12.928Z,95970.94
2023-03-01T09:14:15.347Z,95982.91
2023-03-01T09:19:17.855Z,95982.31
2023-03-01T09:24:20.552Z,95971.53
2023-03-01T09:29:23.090Z,95976.63
2023-03-01T09:34:25.845Z,95970.09
2023-03-01T09:39:28.257Z,95969.44
2023-03-01T09:44:30.750Z,95962.63
2023-03-01T09:49:33.048Z,95965.03
2023-03-01T09:54:36.252Z,95967.06
2023-03-01T09:59:39.910Z,95949.25
2023-03-01T10:04:42.269Z,95948.06
2023-03-01T10:09:44.753Z,95940.47
2023-03-01T10:14:47.681Z,95946.84
2023-03-01T10:19:50.038Z,95941.94
2023-03-01T10:24:52.870Z,95936.88
2023-03-01T10:29:56.356Z,95935.22
2023-03-01T10:34:59.544Z,95938.56
2023-03-01T10:40:02.368Z,95941.97
2023-03-01T10:45:07.231Z,95925.00
2023-03-01T10:50:10.330Z,95909.78
2023-03-01T10:55:13.300Z,95904.47
2023-03-01T11:00:16.587Z,95885.97
2023-03-01T11:05:31.486Z,95887.50
2023-03-01T11:10:35.079Z,95876.75
2023-03-01T11:15:37.390Z,95854.94
2023-03-01T11:20:40.169Z,95852.03
2023-03-01T11:25:50.264Z,95841.69
2023-03-01T11:31:08.583Z,95834.03
2023-03-01T11:36:11.646Z,95835.06
2023-03-01T11:41:14.496Z,95819.84
2023-03-01T11:46:17.613Z,95817.28
2023-03-01T11:51:20.687Z,95806.81
2023-03-01T11:56:24.155Z,95812.22
2023-03-01T12:01:26.736Z,95812.97
2023-03-01T12:06:29.985Z,95803.03
2023-03-01T12:11:33.108Z,95786.38
2023-03-01T12:16:39.484Z,95778.81
2023-03-01T12:21:42.332Z,95772.78
2023-03-01T12:26:44.736Z,95772.25
2023-03-01T12:31:47.665Z,95765.88
2023-03-01T12:36:50.837Z,95768.13
2023-03-01T12:41:53.978Z,95751.66
2023-03-01T12:46:57.500Z,95747.09
2023-03-01T12:52:01.621Z,95751.56
2023-03-01T12:57:04.047Z,95758.06
2023-03-01T13:02:06.813Z,95740.34
2023-03-01T13:07:09.608Z,95748.25
2023-03-01T13:12:19.959Z,95735.59
2023-03-01T13:17:23.495Z,95744.75
2023-03-01T13:22:28.588Z,95752.63
2023-03-01T13:27:31.592Z,95754.03
2023-03-01T13:32:43.615Z,95728.97
2023-03-01T13:37:47.623Z,95730.22
2023-03-01T13:43:04.229Z,95733.00
2023-03-01T13:48:08.348Z,95725.34
2023-03-01T13:53:11.103Z,95724.44
2023-03-01T13:58:13.904Z,95716.34
2023-03-01T14:03:17.041Z,95720.19
2023-03-01T14:08:19.766Z,95712.09
2023-03-01T14:13:22.472Z,95707.03
2023-03-01T14:18:33.147Z,95708.63
2023-03-01T14:23:36.629Z,95708.84
2023-03-01T14:28:48.723Z,95685.03
2023-03-01T14:33:51.169Z,95680.06
2023-03-01T14:38:55.295Z,95677.97
2023-03-01T14:43:59.074Z,95665.78
2023-03-01T14:49:01.395Z,95679.56
2023-03-01T14:54:03.789Z,95665.56
2023-03-01T14:59:06.514Z,95668.22
2023-03-01T15:04:09.686Z,95653.25
2023-03-01T15:09:15.861Z,95662.53
2023-03-01T15:14:20.121Z,95657.84
2023-03-01T15:19:22.432Z,95658.66
2023-03-01T15:24:24.936Z,95658.50
2023-03-01T15:29:30.969Z,95657.38
2023-03-01T15:34:34.212Z,95652.00
2023-03-01T15:39:38.331Z,95645.72
2023-03-01T15:44:44.182Z,95647.72
2023-03-01T15:49:55.030Z,95647.25
2023-03-01T15:55:07.904Z,95649.47
2023-03-01T16:00:12.317Z,95639.31
2023-03-01T16:05:24.781Z,95638.16
2023-03-01T16:10:28.303Z,95634.25
2023-03-01T16:15:32.983Z,95635.75
2023-03-01T16:20:35.993Z,95631.69
2023-03-01T16:25:39.456Z,95639.69
2023-03-01T16:30:42.139Z,95644.44
2023-03-01T16:35:45.369Z,95636.75
2023-03-01T16:40:47.679Z,95629.97
2023-03-01T16:45:50.411Z,95642.47
2023-03-01T16:51:00.935Z,95645.72
2023-03-01T16:56:04.906Z,95651.09
2023-03-01T17:01:08.120Z,95656.97
2023-03-01T17:06:11.827Z,95661.16
2023-03-01T17:11:16.049Z,95673.84
2023-03-01T17:16:18.701Z,95674.66
2023-03-01T17:21:21.955Z,95667.84
2023-03-01T17:26:25.241Z,95674.66
2023-03-01T17:31:28.031Z,95676.97
2023-03-01T17:36:30.541Z,95674.44
2023-03-01T17:41:33.300Z,95679.72
2023-03-01T17:46:35.950Z,95682.72
2023-03-01T17:51:38.545Z,95688.25
2023-03-01T17:56:42.952Z,95707.72
2023-03-01T18:01:45.697Z,95707.09
2023-03-01T18:06:48.237Z,95710.19
2023-03-01T18:11:50.683Z,95705.66
2023-03-01T18:16:54.547Z,95706.72
2023-03-01T18:21:57.393Z,95712.44
2023-03-01T18:26:59.796Z,95716.25
2023-03-01T18:32:02.979Z,95724.19
2023-03-01T18:37:09.602Z,95712.25
2023-03-01T18:42:14.523Z,95707.94
2023-03-01T18:47:17.289Z,95712.69
2023-03-01T18:52:19.659Z,95714.97
2023-03-01T18:57:22.774Z,95708.75
2023-03-01T19:02:25.118Z,95702.38
2023-03-01T19:07:27.771Z,95714.97
2023-03-01T19:12:30.911Z,95702.53
2023-03-01T19:17:34.627Z,95705.22
2023-03-01T19:22:38.780Z,95709.19
2023-03-01T19:27:42.011Z,95708.47
2023-03-01T19:32:44.726Z,95703.09
2023-03-01T19:37:47.043Z,95691.22
2023-03-01T19:42:49.392Z,95700.13
2023-03-01T19:47:59.958Z,95692.84
2023-03-01T19:53:02.291Z,95696.59
2023-03-01T19:58:06.265Z,95701.91
2023-03-01T20:03:08.833Z,95710.38
2023-03-01T20:08:21.172Z,95710.56
2023-03-01T20:13:24.323Z,95707.84
2023-03-01T20:18:26.988Z,95688.13
2023-03-01T20:23:29.320Z,95692.09
2023-03-01T20:28:31.953Z,95685.56
2023-03-01T20:33:34.321Z,95685.34
2023-03-01T20:38:36.657Z,95684.66
2023-03-01T20:43:39.074Z,95687.91
2023-03-01T20:48:49.112Z,95683.19
2023-03-01T20:53:51.584Z,95687.09
2023-03-01T20:58:54.105Z,95686.75
2023-03-01T21:03:56.689Z,95690.09
2023-03-01T21:08:59.382Z,95683.66
2023-03-01T21:14:01.695Z,95676.22
2023-03-01T21:19:05.424Z,95672.00
2023-03-01T21:24:10.312Z,95674.91
2023-03-01T21:29:13.083Z,95676.13
2023-03-01T21:34:15.470Z,95671.69
2023-03-01T21:39:18.007Z,95667.88
2023-03-01T21:44:20.824Z,95657.13
2023-03-01T21:49:23.253Z,95659.88
2023-03-01T21:54:25.718Z,95656.88
2023-03-01T21:59:29.011Z,95663.03
2023-03-01T22:04:31.555Z,95656.47
2023-03-01T22:09:36.063Z,95654.56
2023-03-01T22:14:38.366Z,95655.84
2023-03-01T22:19:40.738Z,95666.72
2023-03-01T22:24:43.047Z,95657.38
2023-03-01T22:29:45.844Z,95651.13
2023-03-01T22:34:48.273Z,95649.75
2023-03-01T22:39:50.630Z,95644.66
2023-03-01T22:44:52.992Z,95636.13
2023-03-01T22:49:56.122Z,95644.66
2023-03-01T22:55:08.452Z,95631.66
2023-03-01T23:00:13.314Z,95632.69
2023-03-01T23:05:15.847Z,95637.41
2023-03-01T23:10:18.336Z,95633.72
2023-03-01T23:15:21.135Z,95624.38
2023-03-01T23:20:24.279Z,95630.09
2023-03-01T23:25:26.656Z,95633.78
2023-03-01T23:30:29.099Z,95638.25
2023-03-01T23:35:31.887Z,95634.59
2023-03-01T23:40:34.376Z,95629.72
2023-03-01T23:45:37.606Z,95628.13
2023-03-01T23:50:41.924Z,95625.91
2023-03-01T23:55:45.086Z,95618.56
